This is the latest recevied weather packets stored in our database for station/object OM5AST-13. If no packets are shown the sender has not sent any weather packets the latest 10 day(s).
| Time | Temp. | Humidity | Pressure | Rain* | Wind** | Luminosity | Snow |
|---|---|---|---|---|---|---|---|
| 1778189035 | 15° C | 67% | - | 0 mm | - | 0 W/m² | - |
| 1778187835 | 15° C | 67% | - | 0 mm | - | 0 W/m² | - |
| 1778186635 | 15° C | 67% | - | 0 mm | - | 0 W/m² | - |
| 1778185435 | 15.56° C | 65% | - | 0 mm | - | 0 W/m² | - |
| 1778184235 | 16.11° C | 61% | - | 0 mm | - | 0 W/m² | - |
| 1778183035 | 16.67° C | 60% | - | 0 mm | - | 0 W/m² | - |
| 1778181835 | 16.67° C | 59% | - | 0 mm | - | 0 W/m² | - |
| 1778180635 | 16.67° C | 59% | - | 0 mm | - | 0 W/m² | - |
| 1778179435 | 17.22° C | 58% | - | 0 mm | - | 0 W/m² | - |
| 1778178235 | 17.78° C | 56% | - | 0 mm | - | 0 W/m² | - |
| 1778177035 | 18.33° C | 54% | - | 0 mm | - | 0 W/m² | - |
| 1778175835 | 19.44° C | 50% | - | 0 mm | - | 0 W/m² | - |
| 1778174635 | 20.56° C | 43% | - | 0 mm | - | 0 W/m² | - |
| 1778173436 | 21.67° C | 40% | - | 0 mm | - | 0 W/m² | - |
| 1778172235 | 22.22° C | 38% | - | 0 mm | - | 0 W/m² | - |
| 1778171036 | 22.78° C | 40% | - | 0 mm | - | 0 W/m² | - |
| 1778169835 | 23.33° C | 39% | - | 0 mm | - | 0 W/m² | - |
| 1778168635 | 23.89° C | 37% | - | 0 mm | - | 0 W/m² | - |
| 1778167435 | 25° C | 36% | - | 0 mm | - | 0 W/m² | - |
| 1778166235 | 24.44° C | 38% | - | 0 mm | - | 0 W/m² | - |
| 1778165035 | 23.89° C | 37% | - | 0 mm | - | 0 W/m² | - |
| 1778163835 | 23.33° C | 38% | - | 0 mm | - | 0 W/m² | - |
| 1778162635 | 23.33° C | 39% | - | 0 mm | - | 0 W/m² | - |
| 1778161435 | 22.22° C | 40% | - | 0 mm | - | 0 W/m² | - |
| 1778160235 | 22.22° C | 40% | - | 0 mm | - | 0 W/m² | - |
* Rain latest hour (hover to see other rain measurements)
** Current wind speed in m/s (hover to see current wind gust speed)